Time;durP1;ratioP1;P1;durP2;ratioP2;P2;SDS_P1;SDS_P2;PMS_P1;PMS_P2;Temp;Humidity;BMP_temperature;BMP_pressure;BME280_temperature;BME280_humidity;BME280_pressure;Samples;Min_cycle;Max_cycle;Signal;HPM_P1;HPM_P2
2021/03/25 00:00:28;;;;;;;0.10;0.10;;;5.10;80.50;;;;;;5093377;28;20378;-76
2021/03/25 00:02:55;;;;;;;0.00;0.00;;;5.00;81.50;;;;;;5092151;28;20378;-76
2021/03/25 00:05:23;;;;;;;0.00;0.00;;;5.30;80.90;;;;;;5092757;28;20392;-76
2021/03/25 00:07:49;;;;;;;0.00;0.00;;;5.50;80.10;;;;;;5092826;28;20374;-76
2021/03/25 00:10:21;;;;;;;0.10;0.10;;;5.50;79.70;;;;;;5092733;28;20418;-76
2021/03/25 00:12:46;;;;;;;0.00;0.00;;;5.40;80.00;;;;;;5092860;28;20370;-76
2021/03/25 00:15:13;;;;;;;0.00;0.00;;;5.20;80.50;;;;;;5092835;28;20394;-76
2021/03/25 00:17:38;;;;;;;0.00;0.00;;;5.10;81.90;;;;;;5092503;28;20405;-76
2021/03/25 00:20:07;;;;;;;0.10;0.10;;;4.90;82.50;;;;;;5092703;28;20382;-76
2021/03/25 00:22:33;;;;;;;0.00;0.00;;;4.90;82.70;;;;;;5092855;28;20382;-76
2021/03/25 00:24:58;;;;;;;0.00;0.00;;;5.20;81.30;;;;;;5092674;28;20443;-76
2021/03/25 00:27:24;;;;;;;0.00;0.00;;;5.10;81.30;;;;;;5092395;28;20402;-76
2021/03/25 00:29:49;;;;;;;0.00;0.00;;;5.10;81.00;;;;;;5092394;28;20493;-76
2021/03/25 00:32:15;;;;;;;0.00;0.00;;;5.00;81.40;;;;;;5090741;28;20826;-76
2021/03/25 00:34:40;;;;;;;0.10;0.10;;;4.90;81.70;;;;;;5092626;28;20384;-76
2021/03/25 00:37:06;;;;;;;0.10;0.10;;;4.80;82.20;;;;;;5091685;28;20375;-76
2021/03/25 00:39:31;;;;;;;0.00;0.00;;;5.00;81.40;;;;;;5092182;28;20405;-76
2021/03/25 00:41:57;;;;;;;0.00;0.00;;;5.10;80.70;;;;;;5091896;28;20393;-76
2021/03/25 00:44:22;;;;;;;0.00;0.00;;;5.00;81.20;;;;;;5092684;28;20452;-76
2021/03/25 00:46:48;;;;;;;0.00;0.00;;;4.90;81.70;;;;;;5091581;28;20378;-76
2021/03/25 00:49:14;;;;;;;0.10;0.10;;;4.90;81.60;;;;;;5092248;28;20932;-76
2021/03/25 00:51:39;;;;;;;0.00;0.00;;;4.90;81.40;;;;;;5091808;28;20377;-76
2021/03/25 00:54:05;;;;;;;0.00;0.00;;;4.90;81.60;;;;;;5107899;28;20386;-76
2021/03/25 00:56:31;;;;;;;0.00;0.00;;;4.60;81.90;;;;;;5091726;28;20397;-76
2021/03/25 00:58:56;;;;;;;0.08;0.08;;;4.60;82.70;;;;;;5091917;28;20390;-76
2021/03/25 01:01:23;;;;;;;0.00;0.00;;;4.70;82.50;;;;;;5092148;28;20377;-76
2021/03/25 01:03:49;;;;;;;0.00;0.00;;;4.90;81.20;;;;;;5092017;28;20513;-76
2021/03/25 01:06:14;;;;;;;0.00;0.00;;;4.90;81.40;;;;;;5092281;28;20378;-76
2021/03/25 01:08:40;;;;;;;0.00;0.00;;;4.80;81.70;;;;;;5090786;28;20412;-76
2021/03/25 01:11:08;;;;;;;0.00;0.00;;;4.40;83.20;;;;;;5091962;28;20466;-76
2021/03/25 01:13:49;;;;;;;0.10;0.10;;;4.50;82.70;;;;;;5091853;28;20447;-76
2021/03/25 01:16:27;;;;;;;0.00;0.00;;;4.50;82.40;;;;;;5091016;28;20370;-76
2021/03/25 01:18:54;;;;;;;0.00;0.00;;;4.40;83.20;;;;;;5107042;28;20862;-76
2021/03/25 01:21:19;;;;;;;0.00;0.00;;;4.30;83.60;;;;;;5073595;28;20443;-76
2021/03/25 01:23:45;;;;;;;0.00;0.00;;;4.50;82.40;;;;;;5091309;28;20378;-76
2021/03/25 01:26:10;;;;;;;0.00;0.00;;;4.40;82.80;;;;;;5091804;28;20370;-76
2021/03/25 01:28:36;;;;;;;0.00;0.00;;;4.40;82.90;;;;;;5091001;28;20410;-76
2021/03/25 01:31:01;;;;;;;0.00;0.00;;;4.40;82.90;;;;;;5089823;28;20405;-75
2021/03/25 01:33:27;;;;;;;0.00;0.00;;;4.40;82.80;;;;;;5090869;28;20374;-76
2021/03/25 01:35:52;;;;;;;0.10;0.10;;;4.50;82.70;;;;;;5091176;28;20959;-76
2021/03/25 01:38:20;;;;;;;0.00;0.00;;;4.60;82.50;;;;;;5091218;28;20503;-76
2021/03/25 01:40:52;;;;;;;0.00;0.00;;;4.40;83.20;;;;;;5091173;28;20374;-76
2021/03/25 01:43:24;;;;;;;0.00;0.00;;;4.10;83.30;;;;;;5091520;28;20673;-76
2021/03/25 01:46:00;;;;;;;0.00;0.00;;;4.30;83.30;;;;;;5090671;28;20880;-76
2021/03/25 01:48:33;;;;;;;0.00;0.00;;;4.30;83.60;;;;;;5072605;28;20417;-76
2021/03/25 01:51:06;;;;;;;0.00;0.00;;;4.40;83.00;;;;;;5091105;28;20550;-76
2021/03/25 01:53:51;;;;;;;0.00;0.00;;;4.20;83.10;;;;;;5090886;28;20647;-76
2021/03/25 01:56:34;;;;;;;0.10;0.10;;;4.00;84.30;;;;;;5090825;28;20803;-76
2021/03/25 01:59:28;;;;;;;0.00;0.00;;;4.20;84.70;;;;;;5090438;28;20880;-76
2021/03/25 02:02:02;;;;;;;0.10;0.10;;;4.30;83.60;;;;;;5090943;28;20382;-76
2021/03/25 02:04:55;;;;;;;0.10;0.10;;;4.20;84.20;;;;;;5090572;28;20385;-76
2021/03/25 02:07:45;;;;;;;0.00;0.00;;;4.10;84.00;;;;;;5090297;28;20400;-76
2021/03/25 02:10:38;;;;;;;0.00;0.00;;;3.90;84.90;;;;;;5090872;28;20409;-75
2021/03/25 02:13:44;;;;;;;0.00;0.00;;;4.10;84.70;;;;;;5090664;28;20449;-76
2021/03/25 02:16:17;;;;;;;0.00;0.00;;;4.20;84.00;;;;;;5090982;28;20469;-76
2021/03/25 02:18:52;;;;;;;0.00;0.00;;;4.20;83.70;;;;;;5090595;28;20401;-76
2021/03/25 02:21:40;;;;;;;0.10;0.10;;;4.20;83.90;;;;;;5090587;28;20987;-76
2021/03/25 02:24:11;;;;;;;0.10;0.10;;;4.10;84.70;;;;;;5106426;28;20443;-76
2021/03/25 02:26:49;;;;;;;0.10;0.10;;;3.90;85.80;;;;;;5090832;28;20676;-76
2021/03/25 02:29:42;;;;;;;0.03;0.03;;;3.70;87.00;;;;;;5094688;28;20450;-76
2021/03/25 02:32:13;;;;;;;0.10;0.10;;;3.90;86.70;;;;;;5086886;28;20493;-76
2021/03/25 02:34:44;;;;;;;0.08;0.08;;;4.20;84.90;;;;;;5110447;28;20457;-76
2021/03/25 02:37:19;;;;;;;0.10;0.10;;;4.10;85.20;;;;;;5094324;28;20386;-76
2021/03/25 02:40:23;;;;;;;0.10;0.10;;;3.80;86.00;;;;;;5094638;28;20391;-76
2021/03/25 02:42:55;;;;;;;0.10;0.10;;;3.70;88.20;;;;;;5094457;28;20438;-76
2021/03/25 02:45:31;;;;;;;0.10;0.10;;;3.60;88.70;;;;;;5094780;28;20462;-76
2021/03/25 02:48:10;;;;;;;0.10;0.10;;;3.80;87.40;;;;;;5093895;28;20427;-76
2021/03/25 02:50:52;;;;;;;0.00;0.00;;;3.90;86.90;;;;;;5094661;28;20386;-76
2021/03/25 02:53:18;;;;;;;0.00;0.00;;;4.20;85.20;;;;;;5094474;28;20386;-76
2021/03/25 02:55:43;;;;;;;0.10;0.10;;;4.20;85.00;;;;;;5094226;28;20389;-76
2021/03/25 02:58:17;;;;;;;0.10;0.10;;;4.00;86.10;;;;;;5093863;28;20480;-76
2021/03/25 03:00:48;;;;;;;0.10;0.10;;;4.10;85.50;;;;;;5094125;28;20439;-76
2021/03/25 03:03:21;;;;;;;0.05;0.05;;;4.10;85.30;;;;;;5094421;28;20382;-76
2021/03/25 03:05:49;;;;;;;0.00;0.00;;;4.10;85.70;;;;;;5094113;28;20563;-76
2021/03/25 03:08:27;;;;;;;0.10;0.10;;;4.00;86.00;;;;;;5093354;28;20515;-76
2021/03/25 03:11:29;;;;;;;0.10;0.10;;;4.20;86.20;;;;;;5093645;28;20778;-76
2021/03/25 03:14:03;;;;;;;0.00;0.00;;;4.30;86.00;;;;;;5048441;28;20482;-76
2021/03/25 03:16:37;;;;;;;0.10;0.10;;;4.30;84.90;;;;;;5093050;28;20548;-76
2021/03/25 03:19:26;;;;;;;0.10;0.10;;;3.90;87.00;;;;;;5093771;28;20386;-76
2021/03/25 03:22:12;;;;;;;0.10;0.10;;;3.90;86.90;;;;;;5094114;28;20494;-76
2021/03/25 03:24:38;;;;;;;0.00;0.00;;;4.20;86.70;;;;;;5093659;28;20864;-76
2021/03/25 03:27:10;;;;;;;0.10;0.10;;;4.00;86.60;;;;;;5093530;28;20646;-76
2021/03/25 03:29:37;;;;;;;0.00;0.00;;;4.20;86.20;;;;;;5093624;28;20858;-76
2021/03/25 03:32:27;;;;;;;0.00;0.00;;;4.40;85.30;;;;;;5093593;28;20386;-76
2021/03/25 03:35:02;;;;;;;0.00;0.00;;;4.40;84.80;;;;;;5093800;28;20380;-76
2021/03/25 03:37:43;;;;;;;0.00;0.00;;;4.20;86.00;;;;;;5092985;28;20427;-76
2021/03/25 03:40:15;;;;;;;0.00;0.00;;;4.30;86.00;;;;;;5093245;28;20386;-76
2021/03/25 03:42:42;;;;;;;0.05;0.05;;;4.30;85.50;;;;;;5092924;28;20374;-76
2021/03/25 03:45:11;;;;;;;0.10;0.10;;;4.20;87.00;;;;;;5093620;28;20378;-76
2021/03/25 03:47:40;;;;;;;0.00;0.00;;;4.40;85.50;;;;;;5074545;28;20518;-76
2021/03/25 03:50:13;;;;;;;0.00;0.00;;;4.40;85.90;;;;;;5093483;28;20406;-76
2021/03/25 03:52:41;;;;;;;0.00;0.00;;;4.50;84.90;;;;;;5093550;28;20837;-76
2021/03/25 03:55:11;;;;;;;0.00;0.00;;;4.50;85.70;;;;;;5093071;28;20417;-76
2021/03/25 03:58:04;;;;;;;0.10;0.10;;;4.40;85.20;;;;;;5092780;28;20439;-76
2021/03/25 04:00:40;;;;;;;0.10;0.10;;;4.40;85.90;;;;;;5093107;28;20394;-76
2021/03/25 04:03:38;;;;;;;0.00;0.00;;;4.40;85.90;;;;;;5093360;28;20383;-76
2021/03/25 04:06:28;;;;;;;0.00;0.00;;;4.60;85.20;;;;;;5047614;28;20382;-76
2021/03/25 04:09:07;;;;;;;0.00;0.00;;;4.60;85.10;;;;;;5092426;28;20732;-76
2021/03/25 04:11:58;;;;;;;0.10;0.10;;;4.70;84.60;;;;;;5093232;28;20391;-76
2021/03/25 04:14:32;;;;;;;0.07;0.07;;;4.60;85.10;;;;;;5082680;28;20897;-76
2021/03/25 04:17:03;;;;;;;0.10;0.10;;;4.60;85.00;;;;;;5092520;28;20395;-76
2021/03/25 04:19:41;;;;;;;0.00;0.00;;;4.50;86.00;;;;;;5092662;28;20378;-76
2021/03/25 04:22:11;;;;;;;0.00;0.00;;;4.40;86.40;;;;;;5092595;28;20374;-77
2021/03/25 04:25:15;;;;;;;0.00;0.00;;;4.50;86.20;;;;;;5093009;28;20390;-76
2021/03/25 04:28:07;;;;;;;0.00;0.00;;;4.60;85.40;;;;;;5092509;28;20439;-77
2021/03/25 04:30:42;;;;;;;0.10;0.10;;;4.70;85.80;;;;;;5092703;28;21237;-76
2021/03/25 04:33:08;;;;;;;0.08;0.08;;;4.60;87.20;;;;;;5108692;28;20389;-76
2021/03/25 04:35:34;;;;;;;0.10;0.10;;;4.70;86.30;;;;;;5092274;28;20733;-76
2021/03/25 04:38:00;;;;;;;0.00;0.00;;;4.80;85.30;;;;;;5092854;28;20825;-76
2021/03/25 04:40:29;;;;;;;0.10;0.10;;;4.80;85.70;;;;;;5108225;28;20526;-77
2021/03/25 04:42:56;;;;;;;0.10;0.10;;;4.70;86.60;;;;;;5092640;28;20792;-76
2021/03/25 04:45:45;;;;;;;0.10;0.10;;;4.70;87.00;;;;;;5074187;28;20485;-76
2021/03/25 04:48:17;;;;;;;0.10;0.10;;;4.70;86.40;;;;;;5091785;28;20382;-76
2021/03/25 04:50:55;;;;;;;0.00;0.00;;;4.60;87.60;;;;;;5092110;28;20397;-76
2021/03/25 04:53:23;;;;;;;0.10;0.10;;;4.70;86.40;;;;;;5107990;28;20450;-76
2021/03/25 04:55:48;;;;;;;0.10;0.10;;;4.60;87.30;;;;;;5092077;28;20741;-77
2021/03/25 04:58:39;;;;;;;0.00;0.00;;;4.50;87.70;;;;;;5091405;28;20476;-76
2021/03/25 05:01:22;;;;;;;0.00;0.00;;;4.70;87.00;;;;;;5091411;28;20390;-77
2021/03/25 05:03:53;;;;;;;0.10;0.10;;;4.60;87.20;;;;;;5091992;28;20451;-77
2021/03/25 05:06:22;;;;;;;0.10;0.10;;;4.50;87.50;;;;;;5091948;28;20386;-77
2021/03/25 05:08:49;;;;;;;0.10;0.10;;;4.60;86.40;;;;;;5092092;28;20668;-77
2021/03/25 05:11:19;;;;;;;0.10;0.10;;;4.70;86.00;;;;;;5091588;28;20386;-76
2021/03/25 05:13:46;;;;;;;0.10;0.10;;;4.70;85.90;;;;;;5092085;28;20389;-76
2021/03/25 05:16:39;;;;;;;0.03;0.03;;;4.70;86.00;;;;;;5091490;28;20465;-77
2021/03/25 05:19:15;;;;;;;0.10;0.10;;;4.70;85.80;;;;;;5073691;28;20405;-77
2021/03/25 05:21:49;;;;;;;0.10;0.10;;;4.70;85.80;;;;;;5091471;28;20378;-76
2021/03/25 05:24:30;;;;;;;0.00;0.00;;;4.70;85.80;;;;;;5091772;28;20382;-76
2021/03/25 05:27:02;;;;;;;0.05;0.05;;;4.70;86.10;;;;;;5091197;28;20390;-76
2021/03/25 05:29:29;;;;;;;0.10;0.10;;;4.80;85.60;;;;;;5091294;28;20943;-76
2021/03/25 05:31:57;;;;;;;0.10;0.10;;;4.80;85.80;;;;;;5107268;28;20557;-76
2021/03/25 05:34:24;;;;;;;0.10;0.10;;;4.80;86.10;;;;;;5091548;28;20810;-76
2021/03/25 05:36:56;;;;;;;0.10;0.10;;;4.80;85.70;;;;;;5090943;28;20406;-76
2021/03/25 05:39:22;;;;;;;0.00;0.00;;;4.80;85.60;;;;;;5092012;28;20414;-76
2021/03/25 05:41:52;;;;;;;0.00;0.00;;;4.70;86.40;;;;;;5107111;28;20440;-76
2021/03/25 05:44:45;;;;;;;0.00;0.00;;;4.60;86.60;;;;;;5090878;28;20767;-77
2021/03/25 05:47:48;;;;;;;0.03;0.03;;;4.50;88.00;;;;;;5090845;28;20410;-77
2021/03/25 05:50:46;;;;;;;0.10;0.10;;;4.70;86.80;;;;;;5072667;28;20409;-76
2021/03/25 05:53:30;;;;;;;0.00;0.00;;;4.70;86.60;;;;;;5091065;28;20370;-77
2021/03/25 05:56:29;;;;;;;0.00;0.00;;;4.80;86.30;;;;;;5091175;28;20382;-77
2021/03/25 05:59:09;;;;;;;0.05;0.05;;;4.90;86.80;;;;;;5001002;28;20916;-77
2021/03/25 06:02:01;;;;;;;0.00;0.00;;;5.00;86.90;;;;;;5090320;28;20461;-77
2021/03/25 06:04:37;;;;;;;0.00;0.00;;;5.10;86.70;;;;;;5106822;28;20392;-77
2021/03/25 06:07:17;;;;;;;0.00;0.00;;;5.00;86.40;;;;;;5105829;28;20919;-77
2021/03/25 06:09:58;;;;;;;0.10;0.10;;;5.00;85.80;;;;;;5091161;28;20540;-77
2021/03/25 06:12:42;;;;;;;0.00;0.00;;;5.00;85.40;;;;;;5090807;28;20854;-77
2021/03/25 06:15:52;;;;;;;0.10;0.10;;;5.00;88.10;;;;;;5091504;28;20388;-77
2021/03/25 06:18:45;;;;;;;0.10;0.10;;;5.10;86.00;;;;;;5064979;28;20785;-77
2021/03/25 06:21:32;;;;;;;0.00;0.00;;;5.20;85.80;;;;;;5090608;28;20881;-77
2021/03/25 06:24:32;;;;;;;0.05;0.05;;;5.20;85.80;;;;;;5072854;28;20745;-77
2021/03/25 06:27:24;;;;;;;0.00;0.00;;;5.30;86.40;;;;;;5090588;28;21008;-76
2021/03/25 06:29:53;;;;;;;0.10;0.10;;;5.40;86.70;;;;;;5052156;28;21024;-77
2021/03/25 06:32:46;;;;;;;0.10;0.10;;;5.40;85.70;;;;;;5090216;28;20378;-77
2021/03/25 06:35:35;;;;;;;0.10;0.10;;;5.40;88.10;;;;;;5090623;28;20384;-77
2021/03/25 06:38:26;;;;;;;0.10;0.10;;;5.50;87.80;;;;;;5089036;28;20398;-77
2021/03/25 06:41:02;;;;;;;0.00;0.00;;;5.60;86.90;;;;;;5090672;28;20382;-77
2021/03/25 06:43:45;;;;;;;0.10;0.10;;;5.70;86.40;;;;;;5090668;28;20435;-76
2021/03/25 06:46:25;;;;;;;0.10;0.10;;;5.90;87.30;;;;;;5106206;28;20394;-76
2021/03/25 06:48:57;;;;;;;0.10;0.10;;;5.90;87.30;;;;;;5090424;28;20402;-77
2021/03/25 06:51:24;;;;;;;0.00;0.00;;;5.90;87.80;;;;;;5090240;28;20769;-76
2021/03/25 06:54:10;;;;;;;0.10;0.10;;;6.00;88.90;;;;;;5103117;28;20869;-77
2021/03/25 06:56:39;;;;;;;0.00;0.00;;;6.10;88.10;;;;;;5089782;28;20406;-77
2021/03/25 06:59:09;;;;;;;0.10;0.10;;;6.30;87.00;;;;;;5090547;28;20398;-77
2021/03/25 07:01:41;;;;;;;0.10;0.10;;;6.40;87.20;;;;;;5087124;28;20876;-77
2021/03/25 07:04:25;;;;;;;0.00;0.00;;;6.50;86.80;;;;;;5088570;28;20393;-78
2021/03/25 07:06:54;;;;;;;0.10;0.10;;;6.80;87.30;;;;;;5087485;28;20409;-77
2021/03/25 07:09:27;;;;;;;0.10;0.10;;;6.90;87.10;;;;;;5089801;28;20479;-77
2021/03/25 07:11:53;;;;;;;0.00;0.00;;;7.30;82.90;;;;;;5090403;28;20484;-77
2021/03/25 07:14:28;;;;;;;0.10;0.10;;;7.40;83.00;;;;;;5093846;28;20406;-77
2021/03/25 07:16:54;;;;;;;0.08;0.08;;;7.60;81.20;;;;;;5072129;28;20396;-78
2021/03/25 07:19:22;;;;;;;0.10;0.10;;;7.80;80.10;;;;;;5091441;28;20390;-77
2021/03/25 07:22:11;;;;;;;0.00;0.00;;;7.90;80.50;;;;;;5093809;28;20417;-78
2021/03/25 07:24:36;;;;;;;0.10;0.10;;;7.90;79.20;;;;;;5092862;28;20913;-78
2021/03/25 07:27:10;;;;;;;0.00;0.00;;;8.00;78.60;;;;;;5091886;28;20453;-77
2021/03/25 07:29:38;;;;;;;0.10;0.10;;;8.10;78.40;;;;;;5074529;28;20401;-78
2021/03/25 07:32:04;;;;;;;0.00;0.00;;;8.10;78.60;;;;;;5093250;28;20374;-78
2021/03/25 07:34:41;;;;;;;0.10;0.10;;;8.20;78.60;;;;;;5094167;28;20722;-77
2021/03/25 07:37:08;;;;;;;0.05;0.05;;;8.30;78.10;;;;;;5074897;28;20397;-78
2021/03/25 07:39:48;;;;;;;0.10;0.10;;;8.40;78.10;;;;;;5075400;28;20382;-77
2021/03/25 07:42:26;;;;;;;0.00;0.00;;;8.50;76.20;;;;;;5093586;28;20704;-77
2021/03/25 07:44:51;;;;;;;0.10;0.10;;;8.50;76.40;;;;;;5093620;28;20393;-77
2021/03/25 07:47:30;;;;;;;0.10;0.10;;;8.50;75.40;;;;;;5092899;28;20382;-77
2021/03/25 07:50:22;;;;;;;0.10;0.10;;;8.60;75.10;;;;;;5074990;28;20789;-77
2021/03/25 07:52:49;;;;;;;0.10;0.10;;;8.60;75.40;;;;;;5092554;28;20387;-77
2021/03/25 07:55:29;;;;;;;0.00;0.00;;;8.70;75.50;;;;;;5092532;28;20378;-77
2021/03/25 07:57:57;;;;;;;0.08;0.08;;;8.70;75.90;;;;;;5092636;28;20559;-77
2021/03/25 08:00:32;;;;;;;0.10;0.10;;;8.60;75.50;;;;;;5093068;28;20385;-77
2021/03/25 08:03:21;;;;;;;0.10;0.10;;;8.70;75.50;;;;;;5093267;28;20374;-77
2021/03/25 08:05:48;;;;;;;0.10;0.10;;;8.80;74.30;;;;;;5093462;28;20378;-77
2021/03/25 08:08:34;;;;;;;0.00;0.00;;;8.80;74.60;;;;;;5092173;28;20912;-77
2021/03/25 08:11:17;;;;;;;0.10;0.10;;;8.80;75.00;;;;;;5093066;28;20386;-77
2021/03/25 08:13:55;;;;;;;0.00;0.00;;;9.00;74.80;;;;;;5092958;28;20401;-77
2021/03/25 08:16:22;;;;;;;0.00;0.00;;;9.00;73.90;;;;;;5093349;28;20413;-77
2021/03/25 08:19:20;;;;;;;0.10;0.10;;;9.00;74.50;;;;;;5092833;28;20418;-77
2021/03/25 08:21:54;;;;;;;0.05;0.05;;;9.00;73.80;;;;;;5092800;28;20378;-77
2021/03/25 08:25:02;;;;;;;0.10;0.10;;;9.10;73.50;;;;;;5091729;28;20402;-77
2021/03/25 08:27:46;;;;;;;0.10;0.10;;;9.10;73.70;;;;;;5073450;28;20395;-77
2021/03/25 08:30:53;;;;;;;0.10;0.10;;;9.30;73.10;;;;;;5092597;28;20394;-77
2021/03/25 08:33:48;;;;;;;0.10;0.10;;;9.40;72.80;;;;;;5093052;28;20443;-77
2021/03/25 08:36:44;;;;;;;0.07;0.07;;;9.50;73.10;;;;;;5093329;28;20378;-77
2021/03/25 08:39:34;;;;;;;0.00;0.00;;;9.70;72.90;;;;;;5092720;28;20384;-77
2021/03/25 08:42:11;;;;;;;0.00;0.00;;;9.70;72.80;;;;;;5092973;28;20387;-77
2021/03/25 08:44:55;;;;;;;0.00;0.00;;;9.80;72.90;;;;;;5092318;28;20382;-78
2021/03/25 08:47:28;;;;;;;0.00;0.00;;;9.80;72.00;;;;;;5092429;28;20734;-77
2021/03/25 08:49:54;;;;;;;0.00;0.00;;;9.50;73.20;;;;;;5091990;28;20752;-77
2021/03/25 08:52:21;;;;;;;0.03;0.03;;;9.40;73.30;;;;;;5092327;28;20397;-77
2021/03/25 08:54:57;;;;;;;0.03;0.03;;;9.40;72.60;;;;;;5092110;28;20382;-77
2021/03/25 08:57:27;;;;;;;0.10;0.10;;;9.60;72.70;;;;;;5073228;28;20398;-77
2021/03/25 09:00:05;;;;;;;0.00;0.00;;;9.60;72.30;;;;;;5092372;28;20392;-77
2021/03/25 09:02:51;;;;;;;0.00;0.00;;;9.80;72.60;;;;;;5091803;28;20378;-77
2021/03/25 09:05:32;;;;;;;0.00;0.00;;;9.90;71.80;;;;;;5074017;28;20402;-77
2021/03/25 09:08:00;;;;;;;0.00;0.00;;;10.00;72.30;;;;;;5073291;28;20475;-77
2021/03/25 09:10:49;;;;;;;0.00;0.00;;;9.80;71.40;;;;;;5091631;28;20434;-77
2021/03/25 09:13:32;;;;;;;0.10;0.10;;;10.00;73.00;;;;;;5092045;28;20378;-77
2021/03/25 09:16:09;;;;;;;0.10;0.10;;;10.10;72.10;;;;;;5091624;28;20374;-78
2021/03/25 09:18:42;;;;;;;0.00;0.00;;;10.00;71.30;;;;;;5091482;28;20374;-77
2021/03/25 09:21:16;;;;;;;0.00;0.00;;;10.30;70.20;;;;;;5091672;28;20374;-78
2021/03/25 09:24:04;;;;;;;0.00;0.00;;;10.60;70.00;;;;;;5091851;28;20378;-77
2021/03/25 09:26:30;;;;;;;0.00;0.00;;;10.20;69.90;;;;;;5090221;28;20394;-77
2021/03/25 09:28:58;;;;;;;0.00;0.00;;;10.40;69.70;;;;;;5091105;28;20401;-78
2021/03/25 09:31:27;;;;;;;0.10;0.10;;;10.50;71.80;;;;;;5091356;28;20398;-77
2021/03/25 09:34:11;;;;;;;0.00;0.00;;;10.60;69.80;;;;;;5091279;28;20508;-77
2021/03/25 09:36:36;;;;;;;0.03;0.03;;;10.60;70.30;;;;;;5072206;28;20382;-77
2021/03/25 09:39:03;;;;;;;0.00;0.00;;;10.60;69.20;;;;;;5090788;28;20769;-77
2021/03/25 09:41:29;;;;;;;0.10;0.10;;;10.50;69.70;;;;;;5091268;28;20382;-77
2021/03/25 09:44:10;;;;;;;0.00;0.00;;;10.80;68.10;;;;;;5090759;28;20382;-77
2021/03/25 09:46:54;;;;;;;0.00;0.00;;;10.90;67.80;;;;;;5090832;28;20390;-77
2021/03/25 09:49:20;;;;;;;0.00;0.00;;;10.80;68.40;;;;;;5091066;28;20814;-76
2021/03/25 09:51:47;;;;;;;0.00;0.00;;;10.80;67.90;;;;;;5090913;28;20424;-76
2021/03/25 09:54:22;;;;;;;0.10;0.10;;;10.80;67.60;;;;;;5073054;28;20407;-77
2021/03/25 09:57:26;;;;;;;0.00;0.00;;;10.90;68.40;;;;;;5090280;28;20406;-78
2021/03/25 09:59:55;;;;;;;0.10;0.10;;;11.00;68.50;;;;;;5073083;28;20747;-78
2021/03/25 10:02:50;;;;;;;0.08;0.08;;;10.90;68.20;;;;;;5091117;28;20386;-78
2021/03/25 10:05:30;;;;;;;0.10;0.10;;;11.20;67.60;;;;;;5072591;28;20394;-78
2021/03/25 10:08:20;;;;;;;0.00;0.00;;;11.40;67.60;;;;;;5072523;28;20440;-78
2021/03/25 10:10:58;;;;;;;0.00;0.00;;;11.40;66.00;;;;;;5090765;28;20406;-78
2021/03/25 10:13:34;;;;;;;0.00;0.00;;;11.40;66.30;;;;;;5072659;28;20489;-78
2021/03/25 10:16:00;;;;;;;0.70;0.50;;;11.30;67.20;;;;;;5091242;28;20386;-79
2021/03/25 10:18:25;;;;;;;0.10;0.10;;;11.20;67.30;;;;;;5090213;28;20420;-79
2021/03/25 10:20:58;;;;;;;7.07;3.72;;;11.50;66.50;;;;;;5090744;28;20473;-79
2021/03/25 10:23:39;;;;;;;0.00;0.00;;;12.10;66.00;;;;;;5090426;28;20500;-78
2021/03/25 10:26:10;;;;;;;24.38;11.95;;;11.50;64.30;;;;;;5090675;28;20390;-78
2021/03/25 10:28:41;;;;;;;21.10;11.20;;;11.80;63.30;;;;;;5090029;28;20414;-79
2021/03/25 10:31:28;;;;;;;0.17;0.10;;;12.10;60.80;;;;;;5089893;28;20394;-79
2021/03/25 10:34:03;;;;;;;32.97;15.07;;;12.30;63.30;;;;;;5087885;28;20447;-79
2021/03/25 10:36:45;;;;;;;48.37;26.33;;;11.90;63.90;;;;;;5071187;28;20392;-79
2021/03/25 10:39:28;;;;;;;2.38;1.40;;;12.60;61.30;;;;;;5089421;28;20396;-79
2021/03/25 10:41:55;;;;;;;2.00;1.20;;;12.90;61.60;;;;;;5084839;28;20842;-78
2021/03/25 10:44:27;;;;;;;20.73;10.30;;;13.40;60.70;;;;;;5090323;28;20393;-79
2021/03/25 10:46:55;;;;;;;0.00;0.00;;;13.50;59.20;;;;;;5089973;28;20384;-78
2021/03/25 10:49:27;;;;;;;0.05;0.05;;;13.00;59.40;;;;;;5093985;28;20449;-77
2021/03/25 10:51:54;;;;;;;0.00;0.00;;;12.60;64.30;;;;;;5074308;28;20476;-78
2021/03/25 10:54:35;;;;;;;0.00;0.00;;;13.20;60.50;;;;;;5095039;28;20394;-78
2021/03/25 10:57:21;;;;;;;0.00;0.00;;;13.50;57.30;;;;;;5076278;28;20429;-78
2021/03/25 11:00:05;;;;;;;0.00;0.00;;;13.40;58.60;;;;;;5076506;28;20402;-77
2021/03/25 11:02:39;;;;;;;0.00;0.00;;;13.10;60.10;;;;;;5110741;28;20421;-78
2021/03/25 11:05:05;;;;;;;0.00;0.00;;;13.60;57.10;;;;;;5094602;28;20469;-78
2021/03/25 11:07:39;;;;;;;0.00;0.00;;;13.50;58.70;;;;;;5093892;28;20958;-78
2021/03/25 11:10:06;;;;;;;0.05;0.05;;;13.30;57.30;;;;;;5093903;28;20402;-78
2021/03/25 11:12:34;;;;;;;0.00;0.00;;;13.50;59.30;;;;;;5093475;28;20795;-78
2021/03/25 11:15:19;;;;;;;0.90;0.60;;;13.30;59.70;;;;;;5091360;28;20376;-78
2021/03/25 11:17:47;;;;;;;29.87;15.20;;;13.40;60.20;;;;;;5091102;28;21070;-78
2021/03/25 11:20:16;;;;;;;51.47;25.55;;;13.10;60.20;;;;;;5075183;28;20741;-78
2021/03/25 11:22:43;;;;;;;70.75;35.13;;;13.10;58.20;;;;;;5090974;28;20882;-78
2021/03/25 11:25:30;;;;;;;0.95;0.60;;;13.40;60.00;;;;;;5094125;28;20721;-79
2021/03/25 11:28:10;;;;;;;14.27;7.93;;;13.90;58.10;;;;;;5093515;28;20386;-79
2021/03/25 11:30:38;;;;;;;0.00;0.00;;;14.20;55.00;;;;;;5093014;28;20410;-79
2021/03/25 11:33:29;;;;;;;6.93;3.67;;;14.10;56.50;;;;;;5075595;28;20402;-79
2021/03/25 11:35:56;;;;;;;12.60;6.65;;;14.40;55.10;;;;;;5093743;28;20386;-79
2021/03/25 11:38:31;;;;;;;0.00;0.00;;;13.90;55.80;;;;;;5093410;28;20374;-78
2021/03/25 11:41:03;;;;;;;0.00;0.00;;;14.10;55.80;;;;;;5093620;28;20386;-79
2021/03/25 11:43:47;;;;;;;0.00;0.00;;;13.90;56.30;;;;;;5093514;28;20414;-79
2021/03/25 11:46:28;;;;;;;2.40;1.40;;;14.00;55.70;;;;;;5093623;28;20370;-79
2021/03/25 11:49:04;;;;;;;31.47;18.77;;;14.20;54.60;;;;;;5089716;28;20890;-78
2021/03/25 11:51:30;;;;;;;60.78;30.77;;;14.00;55.00;;;;;;5092498;28;20878;-79
2021/03/25 11:53:57;;;;;;;51.00;29.17;;;13.90;56.60;;;;;;5093238;28;20620;-79
2021/03/25 11:56:29;;;;;;;56.47;27.25;;;14.20;56.70;;;;;;5093011;28;20386;-78
2021/03/25 11:59:19;;;;;;;37.67;20.83;;;14.40;56.10;;;;;;5092163;28;20877;-79
2021/03/25 12:01:46;;;;;;;3.40;2.10;;;14.20;55.10;;;;;;5091950;28;20431;-79
2021/03/25 12:04:15;;;;;;;88.05;48.50;;;14.60;55.20;;;;;;5075118;28;20389;-79
2021/03/25 12:07:15;;;;;;;38.00;21.17;;;14.50;53.60;;;;;;5092578;28;20390;-79
2021/03/25 12:10:15;;;;;;;0.00;0.00;;;14.30;55.20;;;;;;5093158;28;20394;-78
2021/03/25 12:12:47;;;;;;;0.00;0.00;;;14.60;54.60;;;;;;5092593;28;20423;-79
2021/03/25 12:15:14;;;;;;;24.55;11.27;;;14.70;51.10;;;;;;5092938;28;20921;-79
2021/03/25 12:17:51;;;;;;;18.23;10.38;;;14.90;51.90;;;;;;5092372;28;20381;-78
2021/03/25 12:20:24;;;;;;;1.00;0.60;;;14.60;54.20;;;;;;5074575;28;20427;-78
2021/03/25 12:22:52;;;;;;;4.70;2.60;;;14.60;51.50;;;;;;5072753;28;20384;-79
2021/03/25 12:25:18;;;;;;;1.60;1.20;;;15.00;52.20;;;;;;5091395;28;20378;-79
2021/03/25 12:27:44;;;;;;;0.00;0.00;;;14.90;53.70;;;;;;5092426;28;20380;-79
2021/03/25 12:30:10;;;;;;;0.00;0.00;;;15.40;51.00;;;;;;5092773;28;20431;-79
2021/03/25 12:32:35;;;;;;;0.00;0.00;;;14.90;52.00;;;;;;5091188;28;20394;-79
2021/03/25 12:35:02;;;;;;;5.88;3.05;;;15.30;51.60;;;;;;5092516;28;20920;-79
2021/03/25 12:37:28;;;;;;;0.00;0.00;;;14.80;51.30;;;;;;5092126;28;20378;-79
2021/03/25 12:39:53;;;;;;;0.00;0.00;;;15.00;51.80;;;;;;5092876;28;20447;-79
2021/03/25 12:42:20;;;;;;;0.00;0.00;;;15.20;50.90;;;;;;5074561;28;20394;-79
2021/03/25 12:44:45;;;;;;;33.50;16.77;;;14.90;52.60;;;;;;5092487;28;20723;-79
2021/03/25 12:47:12;;;;;;;0.30;0.30;;;15.00;54.30;;;;;;5091759;28;20386;-78
2021/03/25 12:49:38;;;;;;;33.20;16.05;;;15.10;52.00;;;;;;5074143;28;20764;-79
2021/03/25 12:52:04;;;;;;;29.47;16.60;;;15.60;50.80;;;;;;5091948;28;20378;-79
2021/03/25 12:54:30;;;;;;;33.20;16.73;;;15.00;51.70;;;;;;5092330;28;20382;-79
2021/03/25 12:57:00;;;;;;;29.37;14.90;;;15.10;52.90;;;;;;5091471;28;20394;-79
2021/03/25 12:59:26;;;;;;;30.17;17.02;;;15.60;51.40;;;;;;5092509;28;20512;-79
2021/03/25 13:01:52;;;;;;;26.63;14.83;;;15.00;52.30;;;;;;5091883;28;20370;-79
2021/03/25 13:04:18;;;;;;;9.90;5.40;;;15.30;51.10;;;;;;5092288;28;20404;-79
2021/03/25 13:06:43;;;;;;;5.60;3.50;;;15.40;48.80;;;;;;5073449;28;20397;-78
2021/03/25 13:09:09;;;;;;;1.90;1.20;;;15.30;49.90;;;;;;5091546;28;20401;-79
2021/03/25 13:11:34;;;;;;;4.73;3.00;;;15.00;50.00;;;;;;5073704;28;20866;-79
2021/03/25 13:14:00;;;;;;;33.13;18.17;;;15.60;50.60;;;;;;5091517;28;20405;-79
2021/03/25 13:16:26;;;;;;;31.38;17.70;;;15.80;49.90;;;;;;5073385;28;20398;-79
2021/03/25 13:18:52;;;;;;;34.40;17.90;;;15.80;50.60;;;;;;5091943;28;20461;-79
2021/03/25 13:21:18;;;;;;;33.10;18.90;;;16.60;49.60;;;;;;5092304;28;20882;-79
2021/03/25 13:23:45;;;;;;;0.00;0.00;;;16.00;48.50;;;;;;5091891;28;20428;-78
2021/03/25 13:26:11;;;;;;;14.80;8.70;;;15.50;51.50;;;;;;5107734;28;20406;-79
2021/03/25 13:28:38;;;;;;;33.97;17.95;;;16.10;50.40;;;;;;5090214;28;20389;-79
2021/03/25 13:31:05;;;;;;;16.40;9.57;;;16.10;49.80;;;;;;5089384;28;20382;-78